Time;durP1;ratioP1;P1;durP2;ratioP2;P2;SDS_P1;SDS_P2;PMS_P1;PMS_P2;Temp;Humidity;BMP_temperature;BMP_pressure;BME280_temperature;BME280_humidity;BME280_pressure;Samples;Min_cycle;Max_cycle;Signal;HPM_P1;HPM_P2
2022/04/21 00:00:12;;;;;;;6.10;4.60;;;;;;;12.22;50.70;101428.88;5058488;28;20036;-48
2022/04/21 00:02:38;;;;;;;8.60;4.38;;;;;;;12.22;50.68;101431.47;5057303;28;20039;-45
2022/04/21 00:05:05;;;;;;;6.30;4.30;;;;;;;12.10;50.75;101424.22;5053088;28;20025;-46
2022/04/21 00:07:30;;;;;;;6.85;4.63;;;;;;;12.08;51.03;101424.19;5064283;28;20600;-46
2022/04/21 00:09:55;;;;;;;5.85;4.47;;;;;;;12.07;50.97;101418.97;5062200;28;20028;-46
2022/04/21 00:12:21;;;;;;;10.45;4.90;;;;;;;12.05;51.12;101413.78;5055380;28;20603;-46
2022/04/21 00:14:46;;;;;;;8.82;4.40;;;;;;;12.07;51.12;101408.66;5051926;28;20036;-49
2022/04/21 00:17:12;;;;;;;8.45;4.97;;;;;;;12.01;51.18;101411.03;5058696;28;20428;-47
2022/04/21 00:19:37;;;;;;;7.18;4.38;;;;;;;12.02;50.93;101410.25;5055090;28;20067;-49
2022/04/21 00:24:50;;;;;;;11.15;4.43;;;;;;;11.99;51.04;101412.72;5056480;28;20110;-48
2022/04/21 00:27:16;;;;;;;9.20;4.47;;;;;;;11.96;50.79;101412.63;5056701;28;20021;-50
2022/04/21 00:29:43;;;;;;;9.13;4.63;;;;;;;11.95;51.30;101403.13;5058035;28;20036;-47
2022/04/21 00:32:09;;;;;;;6.82;5.03;;;;;;;11.89;51.52;101405.50;5056139;28;20077;-52
2022/04/21 00:34:34;;;;;;;9.55;4.82;;;;;;;11.87;51.55;101412.34;5056859;28;20037;-46
2022/04/21 00:37:00;;;;;;;8.75;4.85;;;;;;;11.81;51.57;101415.59;5058947;28;20094;-51
2022/04/21 00:39:26;;;;;;;6.55;4.78;;;;;;;11.82;51.45;101414.75;5067628;28;20106;-47
2022/04/21 00:41:55;;;;;;;9.48;4.40;;;;;;;11.84;51.83;101410.53;5057005;28;20051;-46
2022/04/21 00:44:21;;;;;;;7.10;4.60;;;;;;;11.77;51.95;101409.44;5060700;28;20115;-50
2022/04/21 00:46:47;;;;;;;7.90;4.70;;;;;;;11.80;52.01;101412.09;5057058;28;20992;-47
2022/04/21 00:49:14;;;;;;;8.77;4.50;;;;;;;11.79;52.01;101400.06;5051298;28;20033;-47
2022/04/21 00:51:40;;;;;;;6.28;4.50;;;;;;;11.80;51.94;101409.53;5056148;28;20128;-47
2022/04/21 00:54:05;;;;;;;9.48;4.32;;;;;;;11.79;52.74;101410.34;5054217;28;20107;-47
2022/04/21 00:56:31;;;;;;;7.28;4.63;;;;;;;11.77;53.24;101406.88;5060123;28;20136;-49
2022/04/21 00:58:57;;;;;;;8.13;4.68;;;;;;;11.90;53.00;101412.44;5064317;28;20063;-47
2022/04/21 01:04:08;;;;;;;9.70;4.72;;;;;;;11.91;52.59;101406.47;5052707;28;20616;-47
2022/04/21 01:06:34;;;;;;;7.65;5.05;;;;;;;11.89;52.73;101398.69;5057123;28;20496;-45
2022/04/21 01:08:59;;;;;;;7.70;4.70;;;;;;;11.88;52.92;101404.63;5059733;28;20045;-50
2022/04/21 01:11:24;;;;;;;6.22;4.93;;;;;;;11.79;52.91;101407.78;5056460;28;20453;-45
2022/04/21 01:13:50;;;;;;;7.28;5.18;;;;;;;11.77;53.10;101404.28;5059572;28;20035;-46
2022/04/21 01:16:15;;;;;;;10.30;5.30;;;;;;;11.73;53.38;101410.16;5055858;28;20116;-46
2022/04/21 01:18:41;;;;;;;10.43;5.07;;;;;;;11.72;53.20;101403.25;5058931;28;20063;-45
2022/04/21 01:21:06;;;;;;;9.88;5.30;;;;;;;11.64;53.28;101398.69;5056531;28;20029;-47
2022/04/21 01:23:32;;;;;;;10.60;4.90;;;;;;;11.62;53.37;101397.75;5052996;28;20036;-45
2022/04/21 01:25:58;;;;;;;9.00;5.22;;;;;;;11.62;53.65;101405.50;5053698;28;20044;-48
2022/04/21 01:28:25;;;;;;;8.70;5.05;;;;;;;11.62;53.46;101396.06;5057423;28;20035;-45
2022/04/21 01:30:54;;;;;;;15.48;5.45;;;;;;;11.56;53.80;101398.44;5059766;28;20028;-45
2022/04/21 01:33:20;;;;;;;9.77;5.30;;;;;;;11.56;53.68;101390.72;5058256;28;20038;-46
2022/04/21 01:35:45;;;;;;;7.70;5.10;;;;;;;11.50;53.79;101393.09;5054925;28;20025;-48
2022/04/21 01:41:10;;;;;;;5.22;4.72;;;;;;;11.46;54.19;101393.81;5059564;28;20040;-47
2022/04/21 01:43:36;;;;;;;7.85;5.18;;;;;;;11.35;53.64;101379.72;5055696;28;20530;-47
2022/04/21 01:46:02;;;;;;;8.38;5.38;;;;;;;11.34;53.93;101380.53;5058393;28;20028;-46
2022/04/21 01:48:28;;;;;;;7.15;5.13;;;;;;;11.29;53.85;101385.53;5057478;28;20054;-48
2022/04/21 01:50:53;;;;;;;6.78;5.30;;;;;;;11.30;53.94;101383.84;5059994;28;20028;-46
2022/04/21 01:53:19;;;;;;;6.22;5.38;;;;;;;11.30;53.71;101391.56;5055156;28;20040;-45
2022/04/21 01:55:44;;;;;;;8.55;4.95;;;;;;;11.23;53.88;101382.75;5056398;28;20036;-48
2022/04/21 01:58:09;;;;;;;8.75;5.68;;;;;;;11.22;53.83;101384.47;5051839;28;20457;-46
2022/04/21 02:00:35;;;;;;;7.03;5.47;;;;;;;11.26;54.17;101383.72;5056084;28;20028;-52
2022/04/21 02:03:01;;;;;;;6.97;5.68;;;;;;;11.28;54.30;101388.91;5057807;28;20032;-47
2022/04/21 02:05:26;;;;;;;5.93;4.82;;;;;;;11.21;54.21;101382.69;5057645;28;20055;-46
2022/04/21 02:07:52;;;;;;;9.60;5.38;;;;;;;11.22;53.65;101381.00;5058643;28;20035;-47
2022/04/21 02:10:19;;;;;;;10.15;4.95;;;;;;;11.21;53.76;101382.69;5057579;28;20111;-46
2022/04/21 02:12:45;;;;;;;7.70;5.15;;;;;;;11.14;54.14;101385.88;5058138;28;20028;-48
2022/04/21 02:15:11;;;;;;;7.82;5.30;;;;;;;11.20;53.85;101388.66;5061390;28;20634;-46
2022/04/21 02:17:36;;;;;;;6.80;5.38;;;;;;;11.17;54.02;101382.56;5056982;28;20127;-47
2022/04/21 02:20:05;;;;;;;7.80;5.22;;;;;;;11.13;53.83;101381.56;5053685;28;20090;-46
2022/04/21 02:22:30;;;;;;;8.35;5.47;;;;;;;11.10;53.81;101386.63;5056782;28;20033;-47
2022/04/21 02:24:56;;;;;;;9.60;5.50;;;;;;;11.09;53.80;101384.84;5057211;28;20657;-46
2022/04/21 02:27:21;;;;;;;8.07;5.35;;;;;;;10.99;53.90;101380.22;5057381;28;20044;-47
2022/04/21 02:29:48;;;;;;;6.97;5.63;;;;;;;10.97;53.87;101381.84;5060445;28;20253;-45
2022/04/21 02:32:13;;;;;;;8.07;5.32;;;;;;;10.94;54.05;101381.75;5049913;28;20081;-50
2022/04/21 02:34:39;;;;;;;8.50;5.35;;;;;;;10.93;54.01;101388.63;5057251;28;20116;-49
2022/04/21 02:37:04;;;;;;;13.00;5.45;;;;;;;10.88;54.41;101385.00;5058996;28;20093;-48
2022/04/21 02:39:30;;;;;;;8.18;5.55;;;;;;;10.88;54.06;101385.00;5066247;28;20036;-46
2022/04/21 02:41:55;;;;;;;8.10;5.38;;;;;;;10.88;53.99;101381.56;5063677;28;20033;-45
2022/04/21 02:44:20;;;;;;;8.57;5.20;;;;;;;10.80;53.89;101380.38;5061505;28;20377;-47
2022/04/21 02:46:46;;;;;;;8.05;5.20;;;;;;;10.75;54.01;101380.25;5057917;28;20121;-50
2022/04/21 02:49:12;;;;;;;8.57;5.63;;;;;;;10.77;54.20;101380.28;5058256;28;20040;-45
2022/04/21 02:51:37;;;;;;;9.63;5.63;;;;;;;10.73;53.78;101376.72;5062320;28;20386;-46
2022/04/21 02:59:31;;;;;;;5.88;4.85;;;;;;;10.56;54.21;101375.28;5056078;28;20090;-48
2022/04/21 03:01:57;;;;;;;9.25;5.43;;;;;;;10.52;54.08;101386.25;5057500;28;20095;-48
2022/04/21 03:04:23;;;;;;;10.90;5.55;;;;;;;10.47;53.97;101374.09;5062945;28;20370;-46
2022/04/21 03:06:48;;;;;;;7.45;5.90;;;;;;;10.43;54.16;101381.63;5050122;28;20024;-49
2022/04/21 03:09:13;;;;;;;7.53;5.30;;;;;;;10.43;54.30;101379.97;5062259;28;20393;-49
2022/04/21 03:11:39;;;;;;;7.90;5.72;;;;;;;10.35;54.64;101375.34;5058477;28;20028;-50
2022/04/21 03:14:04;;;;;;;9.63;5.10;;;;;;;10.32;54.35;101377.81;5062159;28;20095;-51
2022/04/21 03:16:30;;;;;;;8.13;5.32;;;;;;;10.25;54.64;101378.38;5058001;28;20024;-51
2022/04/21 03:18:55;;;;;;;11.88;5.57;;;;;;;10.28;54.62;101371.66;5061151;28;20099;-50
2022/04/21 03:24:20;;;;;;;8.05;5.72;;;;;;;10.14;54.60;101365.13;5058736;28;20047;-46
2022/04/21 03:26:47;;;;;;;9.65;5.65;;;;;;;10.08;54.68;101372.59;5061428;28;20043;-46
2022/04/21 03:29:13;;;;;;;9.48;5.97;;;;;;;10.01;54.70;101376.63;5060466;28;20435;-45
2022/04/21 03:31:38;;;;;;;8.60;5.22;;;;;;;10.00;54.88;101374.84;5057231;28;20040;-45
2022/04/21 03:34:05;;;;;;;7.43;5.40;;;;;;;10.04;54.74;101363.00;5059694;28;20024;-47
2022/04/21 03:36:31;;;;;;;12.73;5.82;;;;;;;9.98;54.88;101368.78;5057280;28;20032;-48
2022/04/21 03:38:57;;;;;;;9.20;5.78;;;;;;;9.96;54.76;101380.72;5056350;28;20507;-48
2022/04/21 03:41:22;;;;;;;7.80;5.65;;;;;;;9.96;54.63;101369.56;5056134;28;20032;-49
2022/04/21 03:43:47;;;;;;;8.50;5.63;;;;;;;9.96;54.67;101375.56;5060893;28;20033;-47
2022/04/21 03:46:13;;;;;;;7.45;5.43;;;;;;;9.92;54.79;101387.41;5058728;28;20032;-45
2022/04/21 03:48:39;;;;;;;7.15;5.68;;;;;;;9.90;54.99;101383.91;5058345;28;20128;-47
2022/04/21 03:51:04;;;;;;;9.68;5.55;;;;;;;9.87;54.73;101377.75;5059010;28;20582;-45
2022/04/21 03:53:30;;;;;;;8.13;5.63;;;;;;;9.84;55.01;101373.41;5061203;28;20036;-48
2022/04/21 03:55:55;;;;;;;6.93;5.47;;;;;;;9.85;54.77;101375.16;5058298;28;20035;-46
2022/04/21 03:58:20;;;;;;;9.13;5.63;;;;;;;9.84;54.87;101382.78;5061767;28;20513;-47
2022/04/21 04:00:46;;;;;;;9.18;5.57;;;;;;;9.82;54.72;101384.41;5058279;28;20032;-47
2022/04/21 04:03:11;;;;;;;9.00;5.80;;;;;;;9.83;55.14;101383.63;5060515;28;20047;-47
2022/04/21 04:05:36;;;;;;;9.27;5.25;;;;;;;9.83;54.97;101388.75;5064626;28;20035;-45
2022/04/21 04:10:52;;;;;;;10.13;5.70;;;;;;;9.77;54.96;101385.91;5059764;28;20035;-49
2022/04/21 04:13:24;;;;;;;8.15;5.68;;;;;;;9.77;54.95;101380.78;5053212;28;20029;-45
2022/04/21 04:15:51;;;;;;;9.50;5.47;;;;;;;9.77;55.02;101373.06;5058348;28;20112;-45
2022/04/21 04:18:20;;;;;;;8.15;5.45;;;;;;;9.87;54.91;101380.34;5059812;28;20142;-47
2022/04/21 04:20:46;;;;;;;9.00;6.00;;;;;;;9.86;54.83;101384.59;5058669;28;20044;-46
2022/04/21 04:23:19;;;;;;;8.23;5.82;;;;;;;9.84;54.86;101382.78;5056924;28;20039;-48
2022/04/21 04:25:44;;;;;;;6.63;5.05;;;;;;;9.80;54.91;101378.34;5058704;28;20029;-49
2022/04/21 04:28:10;;;;;;;9.10;5.28;;;;;;;9.80;54.41;101376.66;5061554;28;20025;-45
2022/04/21 04:30:38;;;;;;;7.88;5.13;;;;;;;9.81;54.62;101387.78;5058049;28;20047;-50
2022/04/21 04:33:04;;;;;;;8.82;5.40;;;;;;;9.81;54.80;101382.66;5060307;28;20082;-44
2022/04/21 04:35:30;;;;;;;8.23;5.55;;;;;;;9.76;54.91;101389.31;5056725;28;20488;-47
2022/04/21 04:37:55;;;;;;;9.60;5.60;;;;;;;9.74;55.16;101386.69;5063477;28;20032;-44
2022/04/21 04:40:21;;;;;;;9.02;5.65;;;;;;;9.74;54.70;101383.25;5064272;28;20064;-48
2022/04/21 04:42:47;;;;;;;8.35;5.25;;;;;;;9.71;55.02;101381.44;5059422;28;20134;-46
2022/04/21 04:47:56;;;;;;;8.65;5.32;;;;;;;9.71;55.02;101393.38;5055114;28;20094;-44
2022/04/21 04:50:22;;;;;;;8.57;5.10;;;;;;;9.71;55.15;101390.81;5050377;28;20892;-46
2022/04/21 04:52:47;;;;;;;8.40;6.07;;;;;;;9.77;54.94;101391.97;5055516;28;20041;-48
2022/04/21 04:55:13;;;;;;;7.43;5.53;;;;;;;9.74;55.44;101386.69;5058566;28;20035;-47
2022/04/21 04:57:39;;;;;;;8.45;6.15;;;;;;;9.80;54.96;101393.75;5057927;28;20401;-49
2022/04/21 05:00:06;;;;;;;8.48;5.80;;;;;;;9.79;54.85;101397.16;5054286;28;20038;-46
2022/04/21 05:02:31;;;;;;;9.68;5.78;;;;;;;9.82;54.94;101395.56;5053918;28;20437;-45
2022/04/21 05:04:57;;;;;;;7.40;5.80;;;;;;;9.87;54.60;101401.75;5055644;28;20043;-48
2022/04/21 05:07:23;;;;;;;8.70;6.05;;;;;;;9.86;54.87;101402.56;5056308;28;20056;-46
2022/04/21 05:09:48;;;;;;;7.57;5.70;;;;;;;9.87;54.54;101403.44;5057611;28;20040;-51
2022/04/21 05:12:14;;;;;;;8.57;5.40;;;;;;;9.92;54.47;101394.22;5058931;28;20121;-45
2022/04/21 05:14:40;;;;;;;7.15;5.60;;;;;;;9.90;54.65;101398.44;5068986;28;20054;-45
2022/04/21 05:17:05;;;;;;;9.05;5.57;;;;;;;9.92;55.28;101400.25;5056203;28;20512;-48
2022/04/21 05:19:31;;;;;;;9.15;6.47;;;;;;;10.02;55.12;101398.06;5056884;28;20040;-45
2022/04/21 05:22:04;;;;;;;9.98;5.90;;;;;;;10.07;54.94;101392.28;5049336;28;20036;-48
2022/04/21 05:24:31;;;;;;;9.73;6.30;;;;;;;10.10;54.73;101388.94;5054827;28;20036;-46
2022/04/21 05:26:57;;;;;;;8.60;6.07;;;;;;;10.12;54.70;101389.84;5055627;28;20040;-45
2022/04/21 05:32:07;;;;;;;7.55;5.80;;;;;;;10.18;54.41;101385.81;5053389;28;20454;-51
2022/04/21 05:34:33;;;;;;;7.88;6.30;;;;;;;10.15;54.38;101380.59;5054878;28;20036;-48
2022/04/21 05:37:00;;;;;;;9.20;6.07;;;;;;;10.20;54.31;101384.22;5056958;28;20048;-49
2022/04/21 05:39:27;;;;;;;9.77;6.25;;;;;;;10.24;54.44;101384.34;5058203;28;20137;-44
2022/04/21 05:41:53;;;;;;;10.30;6.03;;;;;;;10.19;54.00;101381.56;5056949;28;20607;-46
2022/04/21 05:44:19;;;;;;;12.30;6.00;;;;;;;10.22;54.09;101379.13;5056812;28;20046;-44
2022/04/21 05:46:45;;;;;;;8.45;5.68;;;;;;;10.24;54.84;101389.47;5056344;28;20036;-46
2022/04/21 05:49:11;;;;;;;12.43;6.03;;;;;;;10.32;54.23;101395.81;5058725;28;20091;-47
2022/04/21 05:51:37;;;;;;;8.88;6.25;;;;;;;10.36;54.75;101392.50;5058549;28;20037;-47
2022/04/21 05:54:07;;;;;;;9.98;5.90;;;;;;;10.46;54.50;101389.47;5061204;28;20111;-45
2022/04/21 05:56:33;;;;;;;10.70;6.30;;;;;;;10.52;53.91;101393.97;5049096;28;20041;-47
2022/04/21 05:58:59;;;;;;;8.98;6.25;;;;;;;10.56;54.14;101393.28;5052022;28;20052;-45
2022/04/21 06:01:25;;;;;;;11.82;6.95;;;;;;;10.60;54.31;101390.84;5061067;28;20059;-45
2022/04/21 06:03:52;;;;;;;10.23;6.30;;;;;;;10.68;53.70;101386.00;5057878;28;20028;-45
2022/04/21 06:06:18;;;;;;;9.57;6.40;;;;;;;10.75;53.58;101380.25;5055109;28;20048;-46
2022/04/21 06:08:43;;;;;;;14.95;6.72;;;;;;;10.85;54.17;101392.59;5056239;28;20043;-46
2022/04/21 06:11:09;;;;;;;9.68;7.07;;;;;;;10.90;53.78;101385.91;5059889;28;20039;-45
2022/04/21 06:13:34;;;;;;;8.60;6.63;;;;;;;10.98;53.84;101386.16;5061929;28;20036;-44
2022/04/21 06:16:00;;;;;;;9.55;6.70;;;;;;;11.04;53.47;101383.81;5061398;28;20524;-48
2022/04/21 06:18:26;;;;;;;11.35;7.00;;;;;;;11.17;53.47;101390.28;5058187;28;20033;-47
2022/04/21 06:20:53;;;;;;;10.43;6.65;;;;;;;11.27;53.04;101387.16;5057526;28;20055;-45
2022/04/21 06:23:19;;;;;;;11.85;6.25;;;;;;;11.37;53.06;101383.22;5066266;28;20032;-45
2022/04/21 06:25:45;;;;;;;9.38;6.43;;;;;;;11.39;53.20;101391.84;5064060;28;20732;-44
2022/04/21 06:28:12;;;;;;;12.13;6.75;;;;;;;11.52;52.46;101379.41;5069323;28;20024;-48
2022/04/21 06:30:37;;;;;;;8.90;6.70;;;;;;;11.57;52.38;101376.13;5060069;28;20059;-48
2022/04/21 06:33:03;;;;;;;9.93;6.57;;;;;;;11.69;52.68;101381.66;5068208;28;20039;-45
2022/04/21 06:35:29;;;;;;;10.45;6.65;;;;;;;11.88;52.32;101383.16;5068018;28;20029;-46
2022/04/21 06:37:55;;;;;;;13.35;6.55;;;;;;;11.97;52.82;101378.28;5070783;28;20121;-47
2022/04/21 06:40:21;;;;;;;10.98;6.30;;;;;;;12.12;51.94;101372.72;5068695;28;20535;-46
2022/04/21 06:42:47;;;;;;;16.48;7.15;;;;;;;12.25;51.35;101378.28;5071144;28;20476;-48
2022/04/21 06:48:01;;;;;;;7.93;6.68;;;;;;;12.36;50.50;101373.44;5051542;28;20048;-48
2022/04/21 06:50:27;;;;;;;9.98;6.40;;;;;;;12.50;50.68;101368.69;5067242;28;20385;-46
2022/04/21 06:52:53;;;;;;;9.75;6.10;;;;;;;12.65;50.68;101369.09;5070400;28;20024;-49
2022/04/21 06:55:18;;;;;;;10.13;7.30;;;;;;;12.82;50.21;101361.81;5068328;28;20262;-46
2022/04/21 06:57:43;;;;;;;8.70;6.45;;;;;;;13.00;50.20;101358.84;5069314;28;20055;-50
2022/04/21 07:00:09;;;;;;;10.95;6.93;;;;;;;13.20;49.40;101367.97;5068642;28;20060;-48
2022/04/21 07:02:38;;;;;;;8.43;6.10;;;;;;;13.32;49.17;101358.00;5064166;28;20040;-50
2022/04/21 07:05:11;;;;;;;12.18;6.28;;;;;;;13.58;49.00;101361.19;5064578;28;20024;-49
2022/04/21 07:07:39;;;;;;;12.82;6.75;;;;;;;13.76;48.47;101363.34;5072996;28;20031;-47
2022/04/21 07:10:05;;;;;;;9.65;6.15;;;;;;;13.92;48.11;101362.84;5067807;28;20066;-47
2022/04/21 07:12:31;;;;;;;8.68;6.05;;;;;;;14.11;46.96;101358.94;5067931;28;20032;-50
2022/04/21 07:14:57;;;;;;;7.32;5.90;;;;;;;14.12;46.25;101365.00;5063239;28;20052;-49
2022/04/21 07:17:23;;;;;;;9.20;5.90;;;;;;;14.22;46.93;101364.34;5069672;28;20032;-47
2022/04/21 07:19:49;;;;;;;10.23;5.40;;;;;;;14.31;46.08;101369.72;5067754;28;20171;-46
2022/04/21 07:22:14;;;;;;;12.32;5.57;;;;;;;14.42;46.32;101367.34;5067555;28;20553;-48
2022/04/21 07:24:40;;;;;;;8.57;5.30;;;;;;;14.51;45.79;101371.88;5061665;28;20071;-48
2022/04/21 07:27:05;;;;;;;8.43;5.25;;;;;;;14.63;45.75;101364.38;5063326;28;20033;-49
2022/04/21 07:29:30;;;;;;;11.07;5.95;;;;;;;14.71;45.91;101371.41;5065036;28;20032;-46
2022/04/21 07:31:56;;;;;;;8.18;5.35;;;;;;;14.81;46.24;101375.06;5067123;28;20024;-47
2022/04/21 07:34:23;;;;;;;7.25;5.30;;;;;;;14.79;44.60;101376.75;5067698;28;20475;-46
2022/04/21 07:36:48;;;;;;;8.95;5.55;;;;;;;14.82;44.64;101374.22;5069929;28;20063;-47
2022/04/21 07:39:14;;;;;;;10.57;5.32;;;;;;;14.86;45.15;101377.72;5067986;28;20062;-50
2022/04/21 07:41:39;;;;;;;8.13;4.80;;;;;;;14.96;44.94;101374.47;5065119;28;20071;-51
2022/04/21 07:44:05;;;;;;;10.10;5.32;;;;;;;14.95;44.91;101373.59;5066728;28;20037;-49
2022/04/21 07:46:30;;;;;;;6.65;4.97;;;;;;;15.05;45.22;101378.97;5067581;28;20025;-49
2022/04/21 07:51:40;;;;;;;6.00;4.97;;;;;;;15.05;44.66;101376.38;5066695;28;20085;-50
2022/04/21 07:54:05;;;;;;;8.95;5.22;;;;;;;15.15;45.33;101380.84;5060410;28;20521;-48
2022/04/21 07:56:30;;;;;;;7.25;4.70;;;;;;;15.17;43.71;101371.41;5066609;28;20067;-46
2022/04/21 07:58:56;;;;;;;6.85;4.72;;;;;;;15.23;43.89;101374.97;5065073;28;20489;-45
2022/04/21 08:01:21;;;;;;;7.15;4.70;;;;;;;15.26;43.81;101379.31;5063151;28;20089;-45
2022/04/21 08:03:46;;;;;;;8.35;4.60;;;;;;;15.27;43.48;101371.56;5067382;28;20131;-47
2022/04/21 08:06:12;;;;;;;6.88;4.60;;;;;;;15.36;43.95;101375.19;5061869;28;20121;-46
2022/04/21 08:08:40;;;;;;;11.27;4.78;;;;;;;15.27;43.90;101376.75;5066143;28;20037;-44
2022/04/21 08:11:07;;;;;;;6.93;4.68;;;;;;;15.35;44.31;101382.09;5066780;28;20025;-45
2022/04/21 08:13:32;;;;;;;11.70;4.82;;;;;;;15.35;44.04;101382.09;5066028;28;20471;-45
2022/04/21 08:15:58;;;;;;;7.45;4.72;;;;;;;15.45;44.38;101376.19;5063258;28;20036;-47
2022/04/21 08:18:23;;;;;;;8.82;5.75;;;;;;;15.65;44.49;101376.56;5063690;28;20032;-45
2022/04/21 08:20:49;;;;;;;8.55;4.43;;;;;;;15.59;44.09;101370.34;5062493;28;20114;-48
2022/04/21 08:23:15;;;;;;;11.75;6.07;;;;;;;15.72;43.94;101378.38;5059857;28;20472;-49
2022/04/21 08:33:52;;;;;;;5.57;4.20;;;;;;;16.13;43.98;101377.22;5070005;28;20047;-47
2022/04/21 08:36:18;;;;;;;6.30;4.30;;;;;;;16.20;43.38;101373.84;5067029;28;20194;-49
2022/04/21 08:38:43;;;;;;;7.80;4.50;;;;;;;16.07;43.39;101378.00;5071405;28;20047;-50
2022/04/21 08:41:15;;;;;;;7.35;4.22;;;;;;;16.03;43.77;101371.91;5057602;28;20036;-46
2022/04/21 08:43:40;;;;;;;7.00;3.95;;;;;;;16.09;44.13;101376.31;5064393;28;20093;-45
2022/04/21 08:46:08;;;;;;;8.18;4.25;;;;;;;16.16;43.70;101372.94;5066679;28;20118;-48
2022/04/21 08:48:37;;;;;;;5.53;3.95;;;;;;;16.20;43.59;101363.47;5067279;28;20390;-48
2022/04/21 08:51:08;;;;;;;7.10;4.15;;;;;;;16.28;44.01;101356.66;5060888;28;20532;-47
2022/04/21 08:53:33;;;;;;;7.93;3.97;;;;;;;16.35;42.97;101367.13;5066936;28;20165;-47
2022/04/21 08:56:00;;;;;;;6.40;3.83;;;;;;;16.38;43.07;101358.53;5066542;28;20029;-47
2022/04/21 08:58:26;;;;;;;5.68;3.60;;;;;;;16.42;42.62;101362.88;5066222;28;20056;-46
2022/04/21 09:00:54;;;;;;;5.82;3.58;;;;;;;16.53;42.36;101356.09;5063677;28;20040;-47
2022/04/21 09:03:20;;;;;;;4.72;3.42;;;;;;;16.66;42.32;101364.03;5064387;28;20524;-46
2022/04/21 09:05:45;;;;;;;4.30;3.50;;;;;;;16.60;40.85;101350.13;5068816;28;20024;-46
2022/04/21 09:08:22;;;;;;;6.53;3.78;;;;;;;16.68;41.19;101349.31;5059353;28;20028;-46
2022/04/21 09:11:05;;;;;;;8.95;3.50;;;;;;;16.72;40.03;101353.75;5059573;28;20040;-47
2022/04/21 09:13:33;;;;;;;6.10;3.60;;;;;;;16.58;40.02;101354.44;5060507;28;20128;-46
2022/04/21 09:16:04;;;;;;;6.25;3.50;;;;;;;16.65;40.13;101363.16;5060960;28;20476;-45
2022/04/21 09:18:44;;;;;;;6.85;3.80;;;;;;;16.74;41.30;101352.91;5063022;28;20035;-48
2022/04/21 09:21:11;;;;;;;9.70;3.50;;;;;;;16.80;40.07;101358.16;5064006;28;20028;-51
2022/04/21 09:23:38;;;;;;;6.78;3.20;;;;;;;16.76;39.88;101346.00;5060224;28;20870;-48
2022/04/21 09:26:16;;;;;;;4.75;3.42;;;;;;;16.85;39.83;101350.41;5067606;28;20040;-50
2022/04/21 09:28:42;;;;;;;5.95;3.70;;;;;;;16.76;40.27;101350.34;5062047;28;20028;-48
2022/04/21 09:31:08;;;;;;;6.13;3.47;;;;;;;16.85;40.58;101340.88;5068107;28;20036;-50
2022/04/21 09:33:44;;;;;;;4.80;3.15;;;;;;;17.02;39.08;101338.47;5061000;28;20451;-48
2022/04/21 09:36:10;;;;;;;4.55;3.05;;;;;;;17.01;37.25;101343.66;5064602;28;20029;-47
2022/04/21 09:38:35;;;;;;;5.10;3.22;;;;;;;17.06;37.26;101336.78;5061554;28;20441;-48
2022/04/21 09:41:13;;;;;;;5.22;3.10;;;;;;;17.16;37.19;101331.66;5068272;28;20036;-48
2022/04/21 09:43:41;;;;;;;4.95;2.97;;;;;;;17.10;36.35;101330.72;5066235;28;20534;-47
2022/04/21 09:46:12;;;;;;;3.42;2.38;;;;;;;17.04;33.84;101341.94;5066193;28;20028;-47
2022/04/21 09:48:39;;;;;;;3.58;1.90;;;;;;;16.91;32.77;101337.50;5054666;28;20024;-48
2022/04/21 09:51:16;;;;;;;5.53;1.70;;;;;;;16.87;33.08;101333.13;5067234;28;20024;-48
2022/04/21 09:54:00;;;;;;;3.90;1.67;;;;;;;16.84;33.49;101344.34;5065996;28;20441;-47
2022/04/21 09:56:35;;;;;;;3.10;1.90;;;;;;;16.76;32.52;101334.75;5066455;28;20508;-46
2022/04/21 09:59:08;;;;;;;5.20;2.20;;;;;;;16.65;32.76;101337.19;5065486;28;20048;-48
2022/04/21 10:01:36;;;;;;;5.30;1.88;;;;;;;16.65;32.56;101331.13;5070733;28;20037;-45
2022/04/21 10:04:05;;;;;;;2.45;1.80;;;;;;;16.70;33.19;101326.88;5064077;28;20114;-46
2022/04/21 10:06:31;;;;;;;4.47;2.25;;;;;;;16.68;33.03;101325.97;5067322;28;20392;-49
2022/04/21 10:08:56;;;;;;;3.55;1.90;;;;;;;16.79;33.15;101324.38;5069065;28;20032;-47
2022/04/21 10:11:24;;;;;;;3.53;1.50;;;;;;;16.80;31.96;101316.59;5063276;28;20059;-45
2022/04/21 10:13:56;;;;;;;4.25;1.70;;;;;;;17.01;32.26;101322.88;5069878;28;20032;-46
2022/04/21 10:16:23;;;;;;;1.77;1.60;;;;;;;17.07;31.14;101313.41;5064896;28;20059;-45
2022/04/21 10:18:52;;;;;;;2.60;1.63;;;;;;;17.18;31.19;101313.50;5062228;28;20047;-45
2022/04/21 10:21:25;;;;;;;6.68;2.08;;;;;;;17.20;31.54;101303.97;5068850;28;20037;-46
2022/04/21 10:23:52;;;;;;;3.05;1.90;;;;;;;17.27;31.96;101303.16;5062662;28;20111;-47
2022/04/21 10:26:40;;;;;;;3.75;1.90;;;;;;;17.38;31.91;101295.44;5058145;28;20559;-47
2022/04/21 10:29:27;;;;;;;3.95;2.10;;;;;;;17.53;30.94;101295.53;5062284;28;20028;-45
2022/04/21 10:31:59;;;;;;;2.88;1.80;;;;;;;17.55;30.17;101296.44;5067178;28;20075;-47
2022/04/21 10:34:46;;;;;;;2.58;1.70;;;;;;;17.72;30.48;101306.09;5063365;28;20020;-49
2022/04/21 10:37:20;;;;;;;4.80;1.83;;;;;;;17.79;29.95;101292.28;5062730;28;20024;-45
2022/04/21 10:40:04;;;;;;;4.40;1.70;;;;;;;17.87;30.50;101290.56;5070161;28;20032;-46
2022/04/21 10:42:29;;;;;;;2.47;1.90;;;;;;;17.91;30.27;101284.53;5063623;28;20115;-47
2022/04/21 10:44:55;;;;;;;2.50;2.10;;;;;;;17.90;30.71;101280.19;5062401;28;20016;-47
2022/04/21 10:47:30;;;;;;;3.28;2.10;;;;;;;18.04;31.31;101281.09;5067797;28;20020;-46
2022/04/21 10:49:58;;;;;;;3.30;2.30;;;;;;;18.22;30.72;101282.91;5067631;28;20020;-45
2022/04/21 10:58:34;;;;;;;3.70;2.10;;;;;;;18.84;30.56;101276.13;5065308;28;20094;-46
2022/04/21 11:01:09;;;;;;;3.92;1.92;;;;;;;18.93;29.80;101273.53;5067772;28;20493;-48
2022/04/21 11:03:36;;;;;;;7.40;2.30;;;;;;;19.16;30.15;101269.16;5067915;28;20477;-47
2022/04/21 11:06:10;;;;;;;3.85;1.85;;;;;;;19.28;29.46;101261.31;5065490;28;20350;-46
2022/04/21 11:08:36;;;;;;;3.63;2.15;;;;;;;19.29;29.35;101262.19;5068572;28;20734;-48
2022/04/21 11:11:02;;;;;;;4.55;1.90;;;;;;;19.35;29.03;101258.69;5067760;28;20077;-48
2022/04/21 11:13:50;;;;;;;2.97;2.00;;;;;;;19.68;29.16;101261.28;5073413;28;20032;-50
2022/04/21 11:16:47;;;;;;;5.93;2.47;;;;;;;19.87;28.92;101263.81;5064371;28;20059;-46
2022/04/21 11:19:36;;;;;;;3.83;2.20;;;;;;;20.00;28.93;101252.44;5070792;28;20028;-51
2022/04/21 11:22:07;;;;;;;4.22;2.10;;;;;;;20.12;28.61;101243.69;5069626;28;20024;-46
2022/04/21 11:25:06;;;;;;;5.70;2.10;;;;;;;20.34;28.02;101254.03;5065248;28;20458;-47
2022/04/21 11:27:34;;;;;;;3.28;2.13;;;;;;;20.16;28.26;101243.69;5070684;28;20508;-48
2022/04/21 11:30:08;;;;;;;3.53;2.00;;;;;;;20.12;28.04;101238.47;5059155;28;20081;-49
2022/04/21 11:32:34;;;;;;;3.70;2.25;;;;;;;20.14;27.71;101240.19;5067073;28;20024;-47
2022/04/21 11:35:12;;;;;;;3.08;2.20;;;;;;;20.28;28.02;101237.53;5063306;28;20074;-51
2022/04/21 11:37:50;;;;;;;3.70;1.80;;;;;;;20.38;26.82;101231.34;5066982;28;20028;-48
2022/04/21 11:40:18;;;;;;;5.15;2.22;;;;;;;20.39;27.01;101227.88;5064156;28;20044;-48
2022/04/21 11:42:43;;;;;;;3.22;2.20;;;;;;;20.46;26.92;101219.16;5066019;28;20428;-48
2022/04/21 11:45:08;;;;;;;3.03;1.80;;;;;;;20.35;26.94;101215.72;5061982;28;20037;-47
2022/04/21 11:47:34;;;;;;;2.58;1.90;;;;;;;20.65;27.40;101212.03;5066803;28;20020;-49
2022/04/21 11:50:00;;;;;;;6.28;2.35;;;;;;;20.62;27.64;101212.03;5068943;28;20063;-52
2022/04/21 11:52:28;;;;;;;3.78;2.40;;;;;;;20.40;26.88;101218.28;5062275;28;20032;-51
2022/04/21 11:55:06;;;;;;;6.30;2.20;;;;;;;20.27;27.59;101225.34;5060253;28;20538;-50
2022/04/21 11:57:44;;;;;;;4.10;2.05;;;;;;;20.12;27.52;101223.69;5057045;28;20078;-46
2022/04/21 12:00:12;;;;;;;3.50;2.30;;;;;;;19.72;27.73;101200.41;5059187;28;20040;-50
2022/04/21 12:08:07;;;;;;;5.43;2.10;;;;;;;19.54;29.01;101208.25;5058076;28;20039;-47
2022/04/21 12:10:32;;;;;;;6.18;2.25;;;;;;;19.30;28.80;101206.59;5059423;28;20040;-48
2022/04/21 12:12:58;;;;;;;3.80;2.40;;;;;;;19.33;28.87;101188.31;5053654;28;20056;-48
2022/04/21 12:15:28;;;;;;;3.30;2.15;;;;;;;19.32;29.40;101204.84;5058580;28;20059;-46